createdAt,value
2019-02-26T00:00:27.627Z,18.3
2019-02-26T00:01:04.614Z,18.3
2019-02-26T00:02:04.601Z,18.3
2019-02-26T00:03:04.628Z,18.3
2019-02-26T00:03:37.864Z,18.3
2019-02-26T00:04:37.941Z,18.2
2019-02-26T00:05:26.034Z,18.3
2019-02-26T00:06:06.574Z,18.2
2019-02-26T00:07:02.129Z,18.3
2019-02-26T00:08:03.069Z,18.3
2019-02-26T00:08:36.649Z,18.3
2019-02-26T00:09:36.639Z,18.3
2019-02-26T00:10:15.236Z,18.3
2019-02-26T00:11:12.786Z,18.2
2019-02-26T00:11:55.089Z,18.3
2019-02-26T00:12:45.441Z,18.2
2019-02-26T00:13:39.563Z,18.3
2019-02-26T00:14:32.446Z,18.2
2019-02-26T00:15:15.975Z,18.3
2019-02-26T00:16:21.452Z,18.2
2019-02-26T00:16:55.438Z,18.2
2019-02-26T00:17:54.653Z,18.2
2019-02-26T00:18:35.813Z,18.2
2019-02-26T00:19:25.918Z,18.2
2019-02-26T00:20:20.617Z,18.3
2019-02-26T00:21:08.083Z,18.2
2019-02-26T00:21:57.308Z,18.2
2019-02-26T00:22:46.432Z,18.3
2019-02-26T00:23:36.515Z,18.2
2019-02-26T00:24:30.329Z,18.2
2019-02-26T00:25:23.062Z,18.2
2019-02-26T00:26:06.365Z,18.2
2019-02-26T00:26:58.085Z,18.2
2019-02-26T00:27:52.288Z,18.2
2019-02-26T00:28:47.214Z,18.2
2019-02-26T00:29:34.173Z,18.2
2019-02-26T00:30:21.363Z,18.2
2019-02-26T00:31:08.958Z,18.2
2019-02-26T00:32:00.429Z,18.2
2019-02-26T00:32:46.590Z,18.2
2019-02-26T00:33:36.652Z,18.2
2019-02-26T00:34:26.728Z,18.2
2019-02-26T00:35:29.153Z,18.2
2019-02-26T00:36:16.955Z,18.2
2019-02-26T00:37:06.223Z,18.2
2019-02-26T00:37:57.477Z,18.2
2019-02-26T00:38:46.352Z,18.2
2019-02-26T00:39:33.915Z,18.2
2019-02-26T00:40:22.647Z,18.2
2019-02-26T00:41:09.478Z,18.1
2019-02-26T00:42:06.976Z,18.2
2019-02-26T00:43:02.484Z,18.2
2019-02-26T00:43:39.524Z,18.1
2019-02-26T00:44:38.700Z,18.2
2019-02-26T00:45:26.815Z,18.1
2019-02-26T00:46:12.000Z,18.1
2019-02-26T00:47:10.471Z,18.1
2019-02-26T00:47:49.406Z,18.2
2019-02-26T00:48:45.311Z,18.1
2019-02-26T00:49:32.429Z,18.2
2019-02-26T00:50:19.237Z,18.2
2019-02-26T00:51:08.027Z,18.2
2019-02-26T00:51:58.111Z,18.1
2019-02-26T00:52:48.429Z,18.2
2019-02-26T00:53:37.939Z,18.1
2019-02-26T00:54:38.569Z,18.1
2019-02-26T00:55:18.056Z,18.1
2019-02-26T00:56:13.256Z,18.1
2019-02-26T00:57:15.414Z,18.1
2019-02-26T00:57:48.296Z,18.1
2019-02-26T00:58:51.539Z,18.1
2019-02-26T00:59:28.891Z,18.1
2019-02-26T01:00:18.961Z,18.1
2019-02-26T01:01:24.549Z,18.1
2019-02-26T01:02:02.301Z,18.1
2019-02-26T01:02:48.351Z,18.1
2019-02-26T01:03:42.888Z,18.1
2019-02-26T01:04:29.230Z,18.1
2019-02-26T01:05:19.076Z,18.1
2019-02-26T01:06:11.344Z,18.1
2019-02-26T01:07:09.047Z,18.1
2019-02-26T01:07:56.781Z,18.1
2019-02-26T01:08:48.771Z,18.1
2019-02-26T01:09:35.666Z,18.1
2019-02-26T01:10:25.823Z,18.1
2019-02-26T01:11:10.408Z,18.1
2019-02-26T01:11:59.265Z,18.1
2019-02-26T01:12:48.781Z,18.1
2019-02-26T01:13:39.110Z,18.1
2019-02-26T01:14:29.434Z,18.1
2019-02-26T01:15:18.953Z,18.1
2019-02-26T01:16:09.550Z,18.1
2019-02-26T01:16:59.600Z,18.1
2019-02-26T01:17:49.409Z,18.1
2019-02-26T01:18:39.438Z,18.1
2019-02-26T01:19:29.486Z,18.1
2019-02-26T01:20:32.569Z,18.1
2019-02-26T01:21:09.337Z,18.1
2019-02-26T01:21:59.383Z,18.1
2019-02-26T01:22:49.749Z,18.1
2019-02-26T01:23:39.232Z,18.1
2019-02-26T01:24:34.560Z,18.1
2019-02-26T01:25:25.321Z,18.1
2019-02-26T01:26:13.971Z,18.1
2019-02-26T01:27:00.284Z,18.1
2019-02-26T01:28:01.906Z,18.1
2019-02-26T01:29:01.497Z,18.1
2019-02-26T01:29:35.132Z,18.1
2019-02-26T01:30:37.192Z,18.1
2019-02-26T01:31:10.292Z,18.1
2019-02-26T01:32:02.583Z,18.1
2019-02-26T01:32:50.462Z,18.1
2019-02-26T01:33:40.660Z,18.1
2019-02-26T01:34:30.754Z,18.1
2019-02-26T01:35:20.792Z,18.1
2019-02-26T01:36:11.377Z,18.1
2019-02-26T01:37:12.522Z,18.1
2019-02-26T01:38:01.693Z,18.1
2019-02-26T01:38:54.217Z,18.1
2019-02-26T01:39:31.062Z,18.1
2019-02-26T01:40:28.047Z,18.1
2019-02-26T01:41:27.240Z,18.1
2019-02-26T01:42:01.484Z,18.1
2019-02-26T01:43:06.584Z,18.1
2019-02-26T01:43:40.871Z,18.1
2019-02-26T01:44:45.464Z,18.1
2019-02-26T01:45:33.844Z,18.1
2019-02-26T01:46:20.549Z,18.1
2019-02-26T01:47:07.046Z,18.1
2019-02-26T01:47:54.964Z,18.1
2019-02-26T01:48:43.189Z,18.1
2019-02-26T01:49:32.326Z,18.1
2019-02-26T01:50:22.349Z,18.1
2019-02-26T01:51:12.408Z,18.1
2019-02-26T01:52:02.493Z,18.1
2019-02-26T01:53:02.896Z,18.1
2019-02-26T01:53:54.197Z,18.1
2019-02-26T01:54:41.551Z,18.1
2019-02-26T01:55:29.549Z,18.1
2019-02-26T01:56:12.461Z,18.1
2019-02-26T01:57:02.531Z,18.1
2019-02-26T01:57:52.301Z,18.1
2019-02-26T01:58:42.918Z,18.1
2019-02-26T01:59:37.018Z,18.1
2019-02-26T02:00:26.805Z,18.1
2019-02-26T02:01:27.219Z,18.1
2019-02-26T02:02:03.221Z,18.1
2019-02-26T02:02:53.201Z,18.1
2019-02-26T02:03:50.937Z,18.1
2019-02-26T02:04:44.712Z,18.1
2019-02-26T02:05:33.191Z,18.1
2019-02-26T02:06:20.308Z,18.1
2019-02-26T02:07:08.685Z,18.1
2019-02-26T02:07:58.205Z,18.1
2019-02-26T02:08:56.787Z,18.1
2019-02-26T02:09:33.660Z,18
2019-02-26T02:10:23.175Z,18.1
2019-02-26T02:11:13.510Z,18
2019-02-26T02:12:12.868Z,18.1
2019-02-26T02:13:11.290Z,18.1
2019-02-26T02:13:46.457Z,18
2019-02-26T02:14:34.012Z,18.1
2019-02-26T02:15:26.668Z,18.1
2019-02-26T02:16:13.569Z,18.1
2019-02-26T02:17:15.447Z,18
2019-02-26T02:18:01.580Z,18
2019-02-26T02:19:00.720Z,18
2019-02-26T02:19:36.035Z,18
2019-02-26T02:20:24.510Z,18
2019-02-26T02:21:13.621Z,18
2019-02-26T02:22:04.232Z,18
2019-02-26T02:22:58.135Z,18
2019-02-26T02:23:53.857Z,18
2019-02-26T02:24:41.803Z,18
2019-02-26T02:25:24.534Z,18
2019-02-26T02:26:18.502Z,18
2019-02-26T02:27:04.587Z,18
2019-02-26T02:28:06.098Z,18
2019-02-26T02:28:44.976Z,18
2019-02-26T02:29:34.774Z,18
2019-02-26T02:30:40.725Z,18
2019-02-26T02:31:14.874Z,18
2019-02-26T02:32:09.911Z,18
2019-02-26T02:33:04.454Z,18
2019-02-26T02:33:45.045Z,18
2019-02-26T02:34:45.071Z,18
2019-02-26T02:35:24.893Z,18
2019-02-26T02:36:28.312Z,18
2019-02-26T02:37:05.332Z,18
2019-02-26T02:38:06.933Z,18
2019-02-26T02:38:45.666Z,18
2019-02-26T02:39:35.153Z,18
2019-02-26T02:40:25.849Z,18
2019-02-26T02:41:15.311Z,18
2019-02-26T02:42:05.047Z,18
2019-02-26T02:42:55.958Z,18
2019-02-26T02:43:45.734Z,18
2019-02-26T02:44:35.768Z,18
2019-02-26T02:45:25.576Z,17.9
2019-02-26T02:46:15.649Z,17.9
2019-02-26T02:47:13.721Z,17.9
2019-02-26T02:48:14.757Z,18
2019-02-26T02:48:46.127Z,17.9
2019-02-26T02:49:46.378Z,18
2019-02-26T02:50:26.458Z,18
2019-02-26T02:51:16.543Z,18
2019-02-26T02:52:13.809Z,18
2019-02-26T02:53:05.919Z,18
2019-02-26T02:54:00.475Z,18
2019-02-26T02:54:35.910Z,17.9
2019-02-26T02:55:26.275Z,18
2019-02-26T02:56:20.373Z,18
2019-02-26T02:57:12.920Z,17.9
2019-02-26T02:58:02.892Z,17.9
2019-02-26T02:58:54.085Z,17.9
2019-02-26T02:59:44.208Z,17.9
2019-02-26T03:00:36.639Z,17.9
2019-02-26T03:01:30.246Z,17.9
2019-02-26T03:02:09.176Z,17.9
2019-02-26T03:03:00.993Z,17.9
2019-02-26T03:04:02.423Z,17.9
2019-02-26T03:04:37.832Z,17.9
2019-02-26T03:07:59.067Z,17.9
2019-02-26T03:08:55.021Z,17.9
2019-02-26T03:09:47.298Z,17.9
2019-02-26T03:10:46.057Z,17.9
2019-02-26T03:11:14.730Z,17.9
2019-02-26T03:12:04.255Z,17.9
2019-02-26T03:13:04.699Z,17.9
2019-02-26T03:13:55.630Z,17.9
2019-02-26T03:14:46.062Z,17.9
2019-02-26T03:15:37.777Z,17.9
2019-02-26T03:16:28.539Z,17.9
2019-02-26T03:17:17.380Z,17.9
2019-02-26T03:17:55.474Z,17.9
2019-02-26T03:18:44.688Z,17.9
2019-02-26T03:19:45.674Z,17.9
2019-02-26T03:20:41.686Z,17.9
2019-02-26T03:21:24.557Z,17.9
2019-02-26T03:22:09.602Z,17.9
2019-02-26T03:22:55.804Z,17.9
2019-02-26T03:23:48.627Z,17.9
2019-02-26T03:24:38.688Z,17.9
2019-02-26T03:25:31.666Z,17.9
2019-02-26T03:26:29.030Z,17.9
2019-02-26T03:27:05.803Z,17.9
2019-02-26T03:27:56.125Z,17.9
2019-02-26T03:28:55.675Z,17.9
2019-02-26T03:29:36.241Z,17.9
2019-02-26T03:30:46.523Z,17.9
2019-02-26T03:31:16.093Z,17.9
2019-02-26T03:32:06.535Z,17.9
2019-02-26T03:33:07.777Z,17.9
2019-02-26T03:33:46.324Z,17.9
2019-02-26T03:34:36.745Z,17.9
2019-02-26T03:35:27.006Z,17.9
2019-02-26T03:36:21.680Z,17.9
2019-02-26T03:37:13.438Z,17.9
2019-02-26T03:38:05.948Z,17.9
2019-02-26T03:39:04.208Z,17.9
2019-02-26T03:39:36.353Z,17.9
2019-02-26T03:40:37.576Z,17.9
2019-02-26T03:41:31.807Z,17.9
2019-02-26T03:42:13.276Z,17.9
2019-02-26T03:42:56.865Z,17.9
2019-02-26T03:43:46.949Z,17.9
2019-02-26T03:44:36.995Z,17.9
2019-02-26T03:45:28.326Z,17.9
2019-02-26T03:46:17.388Z,17.9
2019-02-26T03:47:06.625Z,17.9
2019-02-26T03:48:01.573Z,17.9
2019-02-26T03:48:46.996Z,17.9
2019-02-26T03:49:41.648Z,17.9
2019-02-26T03:50:30.547Z,17.9
2019-02-26T03:51:20.978Z,17.9
2019-02-26T03:52:07.815Z,17.9
2019-02-26T03:52:57.630Z,17.9
2019-02-26T03:53:47.330Z,17.9
2019-02-26T03:54:52.162Z,17.9
2019-02-26T03:55:30.681Z,17.9
2019-02-26T03:56:23.107Z,17.9
2019-02-26T03:57:16.639Z,17.9
2019-02-26T03:58:04.914Z,17.9
2019-02-26T03:58:56.753Z,17.9
2019-02-26T03:59:37.744Z,17.9
2019-02-26T04:00:28.399Z,17.9
2019-02-26T04:01:24.522Z,17.9
2019-02-26T04:02:24.139Z,17.9
2019-02-26T04:02:58.521Z,17.9
2019-02-26T04:03:47.735Z,17.9
2019-02-26T04:04:38.634Z,17.9
2019-02-26T04:05:28.666Z,17.9
2019-02-26T04:06:18.187Z,17.9
2019-02-26T04:07:13.180Z,17.9
2019-02-26T04:08:06.964Z,17.9
2019-02-26T04:08:58.035Z,17.9
2019-02-26T04:09:59.269Z,17.9
2019-02-26T04:10:29.029Z,17.9
2019-02-26T04:11:29.725Z,17.9
2019-02-26T04:12:22.011Z,17.9
2019-02-26T04:13:01.281Z,17.9
2019-02-26T04:13:58.788Z,17.9
2019-02-26T04:14:39.340Z,17.9
2019-02-26T04:15:39.813Z,17.9
2019-02-26T04:16:18.859Z,17.9
2019-02-26T04:17:11.833Z,17.9
2019-02-26T04:17:59.256Z,17.9
2019-02-26T04:18:54.103Z,17.9
2019-02-26T04:19:43.521Z,17.9
2019-02-26T04:20:31.277Z,17.9
2019-02-26T04:21:24.155Z,17.9
2019-02-26T04:22:17.978Z,17.9
2019-02-26T04:23:00.611Z,17.9
2019-02-26T04:23:49.436Z,17.9
2019-02-26T04:24:40.755Z,17.9
2019-02-26T04:25:38.262Z,17.9
2019-02-26T04:26:35.709Z,17.9
2019-02-26T04:27:10.216Z,17.9
2019-02-26T04:28:11.850Z,17.9
2019-02-26T04:28:51.010Z,17.9
2019-02-26T04:29:51.365Z,17.9
2019-02-26T04:30:49.200Z,17.9
2019-02-26T04:31:20.469Z,17.9
2019-02-26T04:32:24.025Z,17.9
2019-02-26T04:33:06.985Z,17.9
2019-02-26T04:33:50.615Z,17.9
2019-02-26T04:34:40.394Z,17.9
2019-02-26T04:35:30.748Z,17.9
2019-02-26T04:36:25.358Z,17.9
2019-02-26T04:37:15.756Z,17.9
2019-02-26T04:38:08.763Z,17.9
2019-02-26T04:38:58.022Z,17.9
2019-02-26T04:39:50.128Z,17.9
2019-02-26T04:40:42.479Z,17.9
2019-02-26T04:41:20.917Z,17.9
2019-02-26T04:42:21.998Z,17.9
2019-02-26T04:43:14.158Z,17.9
2019-02-26T04:44:05.979Z,17.9
2019-02-26T04:44:41.355Z,17.9
2019-02-26T04:45:31.422Z,17.9
2019-02-26T04:46:21.492Z,17.9
2019-02-26T04:47:11.595Z,17.9
2019-02-26T04:48:03.743Z,17.9
2019-02-26T04:48:51.342Z,17.9
2019-02-26T04:49:46.142Z,17.9
2019-02-26T04:50:45.797Z,17.9
2019-02-26T04:51:21.860Z,17.9
2019-02-26T04:52:20.224Z,17.9
2019-02-26T04:53:12.907Z,17.9
2019-02-26T04:54:03.137Z,17.9
2019-02-26T04:54:42.536Z,17.9
2019-02-26T04:55:46.247Z,17.9
2019-02-26T04:56:21.107Z,17.9
2019-02-26T04:57:11.734Z,17.9
2019-02-26T04:58:02.089Z,17.9
2019-02-26T04:58:52.335Z,17.9
2019-02-26T04:59:46.610Z,17.9
2019-02-26T05:00:40.905Z,17.9
2019-02-26T05:01:22.442Z,17.9
2019-02-26T05:02:12.301Z,17.9
2019-02-26T05:03:04.901Z,17.9
2019-02-26T05:03:52.409Z,17.9
2019-02-26T05:04:45.396Z,17.9
2019-02-26T05:05:39.838Z,17.9
2019-02-26T05:06:22.596Z,17.9
2019-02-26T05:07:21.887Z,17.9
2019-02-26T05:08:14.682Z,17.8
2019-02-26T05:08:55.806Z,17.9
2019-02-26T05:09:43.083Z,17.9
2019-02-26T05:10:37.264Z,17.9
2019-02-26T05:11:43.113Z,17.9
2019-02-26T05:12:13.247Z,17.9
2019-02-26T05:13:12.078Z,17.9
2019-02-26T05:13:53.391Z,17.9
2019-02-26T05:14:43.435Z,17.9
2019-02-26T05:15:36.569Z,17.9
2019-02-26T05:16:37.698Z,17.9
2019-02-26T05:17:13.069Z,17.9
2019-02-26T05:18:03.393Z,17.9
2019-02-26T05:19:01.063Z,17.9
2019-02-26T05:19:54.214Z,17.9
2019-02-26T05:20:50.032Z,17.9
2019-02-26T05:21:34.918Z,17.9
2019-02-26T05:22:13.630Z,17.9
2019-02-26T05:23:09.207Z,17.9
2019-02-26T05:24:04.530Z,17.9
2019-02-26T05:24:54.790Z,17.9
2019-02-26T05:25:46.040Z,17.9
2019-02-26T05:26:24.297Z,17.9
2019-02-26T05:27:27.022Z,17.9
2019-02-26T05:28:18.252Z,17.9
2019-02-26T05:28:54.777Z,17.9
2019-02-26T05:29:56.345Z,17.9
2019-02-26T05:30:34.240Z,17.9
2019-02-26T05:31:24.297Z,17.9
2019-02-26T05:32:14.310Z,17.9
2019-02-26T05:33:08.515Z,17.9
2019-02-26T05:34:02.525Z,17.9
2019-02-26T05:34:52.802Z,17.9
2019-02-26T05:35:34.279Z,17.9
2019-02-26T05:36:24.874Z,17.9
2019-02-26T05:37:17.017Z,17.9
2019-02-26T05:38:12.165Z,17.9
2019-02-26T05:39:04.379Z,17.9
2019-02-26T05:39:56.384Z,17.9
2019-02-26T05:40:53.103Z,17.9
2019-02-26T05:41:24.653Z,17.9
2019-02-26T05:42:15.020Z,17.9
2019-02-26T05:43:09.767Z,17.9
2019-02-26T05:44:11.901Z,17.9
2019-02-26T05:44:45.277Z,17.9
2019-02-26T05:45:38.627Z,17.9
2019-02-26T05:46:31.698Z,17.9
2019-02-26T05:47:28.190Z,17.9
2019-02-26T05:48:05.401Z,17.9
2019-02-26T05:48:55.729Z,17.9
2019-02-26T05:49:48.681Z,17.9
2019-02-26T05:50:46.908Z,17.9
2019-02-26T05:51:39.333Z,17.9
2019-02-26T05:52:15.973Z,17.9
2019-02-26T05:53:15.293Z,17.9
2019-02-26T05:53:55.572Z,17.9
2019-02-26T05:54:45.039Z,17.9
2019-02-26T05:55:36.180Z,17.9
2019-02-26T05:56:26.380Z,17.9
2019-02-26T05:57:35.682Z,17.9
2019-02-26T05:58:15.583Z,17.9
2019-02-26T05:58:56.422Z,17.9
2019-02-26T05:59:46.263Z,17.9
2019-02-26T06:00:36.599Z,17.9
2019-02-26T06:01:30.374Z,17.9
2019-02-26T06:02:27.049Z,17.9
2019-02-26T06:03:20.266Z,17.9
2019-02-26T06:03:56.269Z,17.9
2019-02-26T06:06:02.662Z,17.9
2019-02-26T06:06:44.146Z,17.9
2019-02-26T06:07:41.488Z,17.9
2019-02-26T06:08:42.648Z,17.9
2019-02-26T06:09:14.842Z,17.9
2019-02-26T06:10:04.667Z,17.9
2019-02-26T06:10:54.696Z,17.9
2019-02-26T06:11:52.926Z,17.9
2019-02-26T06:12:48.197Z,17.9
2019-02-26T06:13:24.624Z,17.9
2019-02-26T06:14:16.209Z,17.9
2019-02-26T06:15:11.052Z,17.9
2019-02-26T06:16:08.676Z,17.9
2019-02-26T06:16:57.451Z,17.9
2019-02-26T06:17:55.458Z,17.9
2019-02-26T06:18:25.209Z,17.9
2019-02-26T06:19:20.293Z,17.9
2019-02-26T06:20:13.123Z,17.9
2019-02-26T06:21:03.810Z,17.9
2019-02-26T06:21:58.131Z,17.9
2019-02-26T06:22:38.011Z,17.9
2019-02-26T06:23:40.375Z,17.9
2019-02-26T06:24:20.191Z,17.9
2019-02-26T06:25:26.739Z,17.9
2019-02-26T06:26:18.790Z,17.9
2019-02-26T06:26:48.941Z,17.9
2019-02-26T06:27:39.306Z,17.9
2019-02-26T06:28:29.021Z,17.9
2019-02-26T06:29:37.936Z,17.9
2019-02-26T06:30:15.336Z,17.9
2019-02-26T06:30:59.771Z,17.9
2019-02-26T06:31:52.383Z,17.9
2019-02-26T06:32:47.323Z,17.9
2019-02-26T06:33:50.997Z,17.9
2019-02-26T06:34:24.725Z,17.9
2019-02-26T06:35:20.951Z,17.9
2019-02-26T06:36:08.409Z,17.9
2019-02-26T06:36:55.720Z,17.9
2019-02-26T06:37:42.763Z,17.9
2019-02-26T06:38:36.953Z,17.9
2019-02-26T06:39:37.010Z,17.9
2019-02-26T06:40:10.886Z,17.9
2019-02-26T06:40:59.880Z,17.9
2019-02-26T06:41:53.395Z,17.9
2019-02-26T06:42:43.373Z,17.9
2019-02-26T06:43:48.285Z,17.9
2019-02-26T06:44:20.638Z,17.9
2019-02-26T06:45:19.115Z,17.9
2019-02-26T06:46:14.672Z,17.9
2019-02-26T06:46:50.802Z,17.9
2019-02-26T06:47:40.394Z,17.9
2019-02-26T06:48:35.172Z,17.9
2019-02-26T06:49:31.003Z,17.9
2019-02-26T06:50:20.627Z,17.9
2019-02-26T06:51:09.064Z,17.9
2019-02-26T06:51:56.742Z,17.9
2019-02-26T06:52:51.659Z,17.9
2019-02-26T06:53:31.242Z,17.9
2019-02-26T06:54:33.587Z,17.9
2019-02-26T06:55:11.384Z,17.9
2019-02-26T06:56:04.177Z,17.9
2019-02-26T06:56:55.689Z,17.9
2019-02-26T06:57:56.316Z,17.9
2019-02-26T06:58:31.329Z,17.9
2019-02-26T06:59:21.364Z,17.9
2019-02-26T07:00:11.218Z,17.9
2019-02-26T07:01:01.050Z,17.9
2019-02-26T07:01:51.346Z,17.9
2019-02-26T07:02:46.356Z,17.9
2019-02-26T07:03:31.439Z,17.9
2019-02-26T07:05:53.804Z,17.9
2019-02-26T07:06:43.912Z,17.9
2019-02-26T07:07:34.669Z,17.8
2019-02-26T07:08:32.901Z,17.9
2019-02-26T07:09:23.010Z,17.9
2019-02-26T07:10:04.931Z,17.9
2019-02-26T07:10:54.983Z,17.9
2019-02-26T07:11:44.958Z,17.9
2019-02-26T07:12:35.004Z,17.9
2019-02-26T07:13:24.580Z,17.9
2019-02-26T07:14:14.866Z,17.9
2019-02-26T07:15:05.208Z,17.8
2019-02-26T07:15:55.245Z,17.8
2019-02-26T07:16:44.782Z,17.9
2019-02-26T07:17:47.900Z,17.8
2019-02-26T07:18:25.408Z,17.9
2019-02-26T07:19:19.316Z,17.9
2019-02-26T07:20:06.423Z,17.8
2019-02-26T07:21:02.818Z,17.8
2019-02-26T07:21:54.661Z,17.9
2019-02-26T07:22:35.675Z,17.8
2019-02-26T07:23:27.298Z,17.8
2019-02-26T07:24:27.778Z,17.8
2019-02-26T07:25:18.577Z,17.8
2019-02-26T07:25:55.899Z,17.8
2019-02-26T07:26:51.220Z,17.8
2019-02-26T07:27:41.050Z,17.8
2019-02-26T07:28:29.852Z,17.8
2019-02-26T07:29:20.717Z,17.8
2019-02-26T07:30:06.205Z,17.8
2019-02-26T07:30:56.233Z,17.8
2019-02-26T07:31:51.799Z,17.8
2019-02-26T07:32:48.388Z,17.8
2019-02-26T07:33:32.727Z,17.8
2019-02-26T07:34:27.930Z,17.8
2019-02-26T07:35:18.387Z,17.8
2019-02-26T07:36:06.187Z,17.8
2019-02-26T07:36:54.272Z,17.8
2019-02-26T07:37:42.827Z,17.8
2019-02-26T07:38:30.280Z,17.8
2019-02-26T07:39:25.049Z,17.8
2019-02-26T07:40:20.160Z,17.8
2019-02-26T07:41:07.805Z,17.8
2019-02-26T07:41:56.254Z,17.8
2019-02-26T07:42:50.854Z,17.8
2019-02-26T07:43:26.537Z,17.8
2019-02-26T07:44:30.210Z,17.8
2019-02-26T07:45:31.755Z,17.8
2019-02-26T07:45:57.258Z,17.8
2019-02-26T07:46:48.284Z,17.8
2019-02-26T07:47:39.716Z,17.8
2019-02-26T07:48:35.864Z,17.8
2019-02-26T07:49:17.467Z,17.8
2019-02-26T07:50:18.994Z,17.8
2019-02-26T07:50:57.571Z,17.8
2019-02-26T07:51:47.080Z,17.8
2019-02-26T07:52:37.686Z,17.8
2019-02-26T07:53:27.758Z,17.8
2019-02-26T07:54:17.523Z,17.8
2019-02-26T07:55:18.933Z,17.8
2019-02-26T07:56:09.936Z,17.8
2019-02-26T07:56:47.745Z,17.8
2019-02-26T07:57:37.848Z,17.8
2019-02-26T07:58:28.135Z,17.8
2019-02-26T07:59:34.555Z,17.8
2019-02-26T08:00:08.216Z,17.8
2019-02-26T08:00:58.025Z,17.8
2019-02-26T08:01:52.578Z,17.8
2019-02-26T08:02:40.388Z,17.8
2019-02-26T08:03:32.101Z,17.8
2019-02-26T08:04:21.423Z,17.7
2019-02-26T08:05:08.543Z,17.7
2019-02-26T08:06:09.112Z,17.7
2019-02-26T08:06:48.693Z,17.7
2019-02-26T08:07:38.443Z,17.7
2019-02-26T08:08:28.760Z,17.7
2019-02-26T08:09:25.648Z,17.7
2019-02-26T08:10:20.858Z,17.7
2019-02-26T08:10:58.928Z,17.7
2019-02-26T08:11:51.988Z,17.7
2019-02-26T08:12:45.162Z,17.7
2019-02-26T08:13:38.593Z,17.7
2019-02-26T08:14:27.648Z,17.7
2019-02-26T08:15:17.723Z,17.7
2019-02-26T08:16:07.219Z,17.7
2019-02-26T08:17:07.272Z,17.7
2019-02-26T08:17:39.368Z,17.7
2019-02-26T08:18:29.430Z,17.7
2019-02-26T08:19:19.207Z,17.6
2019-02-26T08:20:17.087Z,17.7
2019-02-26T08:21:07.502Z,17.6
2019-02-26T08:21:59.092Z,17.7
2019-02-26T08:22:39.742Z,17.7
2019-02-26T08:23:29.602Z,17.6
2019-02-26T08:24:27.335Z,17.6
2019-02-26T08:25:09.872Z,17.6
2019-02-26T08:26:04.955Z,17.6
2019-02-26T08:26:52.774Z,17.6
2019-02-26T08:27:41.371Z,17.6
2019-02-26T08:28:29.842Z,17.6
2019-02-26T08:29:20.159Z,17.6
2019-02-26T08:30:12.113Z,17.6
2019-02-26T08:31:00.759Z,17.6
2019-02-26T08:32:03.039Z,17.6
2019-02-26T08:32:42.607Z,17.6
2019-02-26T08:33:30.511Z,17.6
2019-02-26T08:34:20.497Z,17.6
2019-02-26T08:35:10.556Z,17.6
2019-02-26T08:36:00.331Z,17.6
2019-02-26T08:36:50.386Z,17.6
2019-02-26T08:37:40.741Z,17.6
2019-02-26T08:38:33.571Z,17.6
2019-02-26T08:39:20.822Z,17.6
2019-02-26T08:40:12.912Z,17.6
2019-02-26T08:41:00.671Z,17.6
2019-02-26T08:41:50.733Z,17.6
2019-02-26T08:42:40.787Z,17.6
2019-02-26T08:43:30.891Z,17.6
2019-02-26T08:44:20.951Z,17.6
2019-02-26T08:45:17.692Z,17.6
2019-02-26T08:46:00.724Z,17.3
2019-02-26T08:46:52.461Z,15.9
2019-02-26T08:47:40.618Z,30.1
2019-02-26T08:48:31.433Z,50.5
2019-02-26T08:49:25.511Z,58.4
2019-02-26T08:50:17.498Z,58.4
2019-02-26T08:51:22.614Z,57.8
2019-02-26T08:51:51.676Z,55
2019-02-26T08:52:41.437Z,53.8
2019-02-26T08:53:34.295Z,52
2019-02-26T08:54:36.896Z,51.2
2019-02-26T08:55:26.067Z,50
2019-02-26T08:56:08.973Z,49.2
2019-02-26T08:56:52.026Z,48.5
2019-02-26T08:57:41.781Z,47.9
2019-02-26T08:58:31.911Z,47
2019-02-26T08:59:23.295Z,46.3
2019-02-26T09:00:12.033Z,45.8
2019-02-26T09:01:02.278Z,45.1
2019-02-26T09:01:52.328Z,44.4
2019-02-26T09:02:57.884Z,43.8
2019-02-26T09:03:42.057Z,42.9
2019-02-26T09:04:26.530Z,42.3
2019-02-26T09:05:15.210Z,41.8
2019-02-26T09:06:18.521Z,41.3
2019-02-26T09:07:03.853Z,40.7
2019-02-26T09:07:52.195Z,40.3
2019-02-26T09:08:44.624Z,39.8
2019-02-26T09:09:34.352Z,39.2
2019-02-26T09:10:24.749Z,38.8
2019-02-26T09:11:15.533Z,38.3
2019-02-26T09:12:04.198Z,39.4
2019-02-26T09:12:53.935Z,42.9
2019-02-26T09:13:45.782Z,52.4
2019-02-26T09:14:22.920Z,62.1
2019-02-26T09:15:13.254Z,61.8
2019-02-26T09:16:09.784Z,60.3
2019-02-26T09:17:05.927Z,57.9
2019-02-26T09:17:45.511Z,56.4
2019-02-26T09:18:42.914Z,55.6
2019-02-26T09:19:38.033Z,54.6
2019-02-26T09:20:17.669Z,53.7
2019-02-26T09:21:03.337Z,53
2019-02-26T09:23:02.527Z,51.3
2019-02-26T09:23:35.625Z,50.3
2019-02-26T09:24:23.894Z,49.6
2019-02-26T09:25:13.681Z,49
2019-02-26T09:26:09.946Z,48.1
2019-02-26T09:27:06.531Z,47.4
2019-02-26T09:27:46.464Z,46.7
2019-02-26T09:28:35.539Z,46.1
2019-02-26T09:29:25.454Z,45.5
2019-02-26T09:30:19.270Z,45
2019-02-26T09:31:14.969Z,46.8
2019-02-26T09:31:54.089Z,51.5
2019-02-26T09:32:47.366Z,60.3
2019-02-26T09:33:46.988Z,65
2019-02-26T09:34:40.491Z,64.5
2019-02-26T09:35:19.746Z,61.9
2019-02-26T09:36:04.631Z,58.2
2019-02-26T09:37:09.013Z,56.1
2019-02-26T09:38:01.981Z,55.2
2019-02-26T09:38:34.803Z,54.4
2019-02-26T09:39:24.651Z,53.8
2019-02-26T09:40:16.859Z,52.9
2019-02-26T09:41:56.902Z,51.2
2019-02-26T09:43:01.228Z,50.3
2019-02-26T09:43:40.872Z,49.4
2019-02-26T09:44:37.382Z,48.9
2019-02-26T09:45:29.746Z,48.1
2019-02-26T09:46:20.533Z,49
2019-02-26T09:47:07.529Z,51.6
2019-02-26T09:47:58.627Z,58.7
2019-02-26T09:48:47.633Z,61.6
2019-02-26T09:49:37.025Z,62
2019-02-26T09:50:24.878Z,60.9
2019-02-26T09:51:17.532Z,58.4
2019-02-26T09:52:07.913Z,56.4
2019-02-26T09:52:59.213Z,55.3
2019-02-26T09:53:35.806Z,54.4
2019-02-26T09:54:26.049Z,54
2019-02-26T09:55:15.923Z,53.1
2019-02-26T09:56:05.983Z,52.4
2019-02-26T09:56:55.762Z,51.6
2019-02-26T09:57:44.786Z,50.8
2019-02-26T09:58:43.748Z,50.1
2019-02-26T09:59:33.958Z,49.1
2019-02-26T10:00:30.838Z,48.4
2019-02-26T10:01:16.314Z,47.6
2019-02-26T10:02:07.237Z,48.1
2019-02-26T10:02:53.669Z,49
2019-02-26T10:03:43.444Z,58.1
2019-02-26T10:04:31.066Z,64
2019-02-26T10:06:53.688Z,63.1
2019-02-26T10:07:43.716Z,58.1
2019-02-26T10:08:33.762Z,55.9
2019-02-26T10:09:23.912Z,55.8
2019-02-26T10:10:16.409Z,57.6
2019-02-26T10:11:07.567Z,59.4
2019-02-26T10:11:54.676Z,60.8
2019-02-26T10:12:44.054Z,61.4
2019-02-26T10:13:34.377Z,60.9
2019-02-26T10:14:26.283Z,59.9
2019-02-26T10:15:13.935Z,58.9
2019-02-26T10:16:10.949Z,58.4
2019-02-26T10:16:59.094Z,58.3
2019-02-26T10:17:47.406Z,58.8
2019-02-26T10:18:35.949Z,59.4
2019-02-26T10:19:24.811Z,59.9
2019-02-26T10:20:14.823Z,60.2
2019-02-26T10:21:11.934Z,60.1
2019-02-26T10:21:57.150Z,59.8
2019-02-26T10:22:45.483Z,59.3
2019-02-26T10:24:41.008Z,57.9
2019-02-26T10:25:17.667Z,56.8
2019-02-26T10:26:13.142Z,56
2019-02-26T10:27:05.975Z,55.3
2019-02-26T10:27:49.825Z,54.1
2019-02-26T10:29:04.983Z,53.5
2019-02-26T10:29:25.663Z,52.2
2019-02-26T10:30:19.731Z,51.6
2019-02-26T10:31:12.555Z,50.9
2019-02-26T10:31:59.788Z,50.1
2019-02-26T10:32:50.152Z,49.5
2019-02-26T10:33:51.968Z,48.8
2019-02-26T10:34:33.350Z,48
2019-02-26T10:35:49.746Z,47.4
2019-02-26T10:36:19.666Z,46.4
2019-02-26T10:36:56.455Z,46.1
2019-02-26T10:37:47.098Z,45.6
2019-02-26T10:38:41.202Z,45
2019-02-26T10:39:32.635Z,44.4
2019-02-26T10:40:22.023Z,43.8
2019-02-26T10:41:10.653Z,42.9
2019-02-26T10:42:05.182Z,42.8
2019-02-26T10:42:50.492Z,42.3
2019-02-26T10:43:43.542Z,41.8
2019-02-26T10:44:31.290Z,41.3
2019-02-26T10:45:20.373Z,40.8
2019-02-26T10:46:10.720Z,40.4
2019-02-26T10:47:12.283Z,39.9
2019-02-26T10:48:03.387Z,39.4
2019-02-26T10:48:52.852Z,39
2019-02-26T10:49:32.209Z,38.6
2019-02-26T10:50:33.882Z,38.3
2019-02-26T10:51:11.067Z,37.7
2019-02-26T10:52:02.049Z,37.4
2019-02-26T10:53:06.701Z,37.1
2019-02-26T10:53:41.569Z,36.6
2019-02-26T10:54:48.107Z,36.4
2019-02-26T10:55:43.866Z,36
2019-02-26T10:56:11.674Z,35.7
2019-02-26T10:57:16.527Z,35.5
2019-02-26T10:58:04.603Z,35.1
2019-02-26T10:58:41.556Z,34.8
2019-02-26T10:59:31.678Z,34.6
2019-02-26T11:00:37.800Z,34.3
2019-02-26T11:01:12.014Z,33.9
2019-02-26T11:02:05.904Z,33.6
2019-02-26T11:02:57.352Z,33.4
2019-02-26T11:03:57.198Z,33.1
2019-02-26T11:04:56.438Z,32.9
2019-02-26T11:05:29.557Z,32.6
2019-02-26T11:06:21.674Z,32.3
2019-02-26T11:07:15.846Z,32.1
2019-02-26T11:08:09.677Z,31.9
2019-02-26T11:08:42.520Z,31.7
2019-02-26T11:09:35.369Z,31.5
2019-02-26T11:10:27.506Z,31.3
2019-02-26T11:11:21.194Z,35.5
2019-02-26T11:12:11.165Z,41.8
2019-02-26T11:13:02.169Z,57
2019-02-26T11:13:55.776Z,62
2019-02-26T11:14:45.741Z,62.2
2019-02-26T11:15:37.601Z,59.2
2019-02-26T11:16:27.946Z,55.8
2019-02-26T11:17:03.055Z,54.1
2019-02-26T11:17:58.465Z,53.6
2019-02-26T11:18:49.660Z,52.6